Time;durP1;ratioP1;P1;durP2;ratioP2;P2;SDS_P1;SDS_P2;PMS_P1;PMS_P2;Temp;Humidity;BMP_temperature;BMP_pressure;BME280_temperature;BME280_humidity;BME280_pressure;Samples;Min_cycle;Max_cycle;Signal;HPM_P1;HPM_P2
2023/06/08 00:02:13;;;;;;;1.25;1.23;;;;;;;-146.25;100.00;57403.91;5074335;28;20235;-87
2023/06/08 00:04:41;;;;;;;1.98;1.88;;;;;;;-146.25;100.00;57403.91;5074140;28;20288;-86
2023/06/08 00:07:10;;;;;;;2.00;1.90;;;;;;;-146.25;100.00;57403.91;5073843;28;20203;-88
2023/06/08 00:09:38;;;;;;;1.83;1.73;;;;;;;-146.25;100.00;57403.91;5073503;28;20206;-88
2023/06/08 00:12:06;;;;;;;2.83;2.42;;;;;;;-146.25;100.00;57403.91;5073561;28;20229;-86
2023/06/08 00:14:35;;;;;;;1.75;1.65;;;;;;;-146.25;100.00;57403.91;5073559;28;20233;-87
2023/06/08 00:17:03;;;;;;;1.83;1.73;;;;;;;-146.25;100.00;57403.91;5073276;28;20210;-87
2023/06/08 00:19:31;;;;;;;2.75;2.05;;;;;;;-146.25;100.00;57403.91;5073920;28;20650;-87
2023/06/08 00:22:04;;;;;;;2.00;1.90;;;;;;;-146.25;100.00;57403.91;5073404;28;20224;-87
2023/06/08 00:24:33;;;;;;;2.00;1.90;;;;;;;-146.25;100.00;57403.91;5073552;28;20198;-88
2023/06/08 00:27:00;;;;;;;2.45;2.25;;;;;;;-146.25;100.00;57403.91;5073201;28;20213;-87
2023/06/08 00:29:28;;;;;;;2.22;2.10;;;;;;;-146.25;100.00;57403.91;5074078;28;20193;-86
2023/06/08 00:31:56;;;;;;;1.50;1.40;;;;;;;-146.25;100.00;57403.91;5077822;28;20246;-88
2023/06/08 00:34:23;;;;;;;1.70;1.63;;;;;;;-146.25;100.00;57403.91;5078972;28;20228;-86
2023/06/08 00:36:50;;;;;;;4.13;1.98;;;;;;;-146.25;100.00;57403.91;5078824;28;20711;-86
2023/06/08 00:39:17;;;;;;;1.70;1.60;;;;;;;-146.25;100.00;57403.91;5080139;28;20221;-87
2023/06/08 00:41:45;;;;;;;2.03;1.33;;;;;;;-146.25;100.00;57403.91;5078789;28;20200;-86
2023/06/08 00:44:12;;;;;;;1.52;1.48;;;;;;;-146.25;100.00;57403.91;5073770;28;20202;-87
2023/06/08 00:46:39;;;;;;;1.80;1.70;;;;;;;-146.25;100.00;57403.91;5071856;28;20284;-86
2023/06/08 00:49:09;;;;;;;2.03;1.67;;;;;;;-146.25;100.00;57403.91;5073170;28;20493;-85
2023/06/08 00:51:40;;;;;;;1.93;1.80;;;;;;;-146.25;100.00;57403.91;5073140;28;20249;-86
2023/06/08 00:54:10;;;;;;;1.03;1.03;;;;;;;-146.25;100.00;57403.91;5073304;28;20316;-88
2023/06/08 00:56:38;;;;;;;1.50;1.33;;;;;;;-146.25;100.00;57403.91;5072839;28;20200;-86
2023/06/08 00:59:07;;;;;;;1.50;1.50;;;;;;;-146.25;100.00;57403.91;5072562;28;20209;-86
2023/06/08 01:01:35;;;;;;;1.90;1.80;;;;;;;-146.25;100.00;57403.91;5072430;28;20231;-87
2023/06/08 01:04:06;;;;;;;2.20;2.00;;;;;;;-146.25;100.00;57403.91;5072843;28;20420;-86
2023/06/08 01:06:37;;;;;;;1.80;1.73;;;;;;;-146.25;100.00;57403.91;5072937;28;20188;-87
2023/06/08 01:09:15;;;;;;;10.70;1.70;;;;;;;-146.25;100.00;57403.91;5072407;28;20246;-86
2023/06/08 01:11:53;;;;;;;1.37;1.37;;;;;;;-146.25;100.00;57403.91;5072239;28;20702;-87
2023/06/08 01:14:30;;;;;;;1.80;1.70;;;;;;;-146.25;100.00;57403.91;5072140;28;20230;-87
2023/06/08 01:17:01;;;;;;;2.37;1.77;;;;;;;-146.25;100.00;57403.91;5071980;28;20250;-87
2023/06/08 01:19:52;;;;;;;1.93;1.63;;;;;;;-146.25;100.00;57403.91;5072482;28;20205;-85
2023/06/08 01:22:28;;;;;;;1.43;1.30;;;;;;;-146.25;100.00;57403.91;5072315;28;20231;-87
2023/06/08 01:25:00;;;;;;;1.13;1.13;;;;;;;-146.25;100.00;57403.91;5072167;28;20198;-86
2023/06/08 01:27:31;;;;;;;1.83;1.73;;;;;;;-146.25;100.00;57403.91;5072135;28;20223;-87
2023/06/08 01:30:02;;;;;;;3.57;2.00;;;;;;;-146.25;100.00;57403.91;5071924;28;20738;-87
2023/06/08 01:32:29;;;;;;;2.37;2.17;;;;;;;-146.25;100.00;57403.91;5072528;28;20190;-86
2023/06/08 01:34:56;;;;;;;1.57;1.50;;;;;;;-146.25;100.00;57403.91;5072273;28;20276;-86
2023/06/08 01:37:28;;;;;;;2.43;1.40;;;;;;;-146.25;100.00;57403.91;5072110;28;20198;-87
2023/06/08 01:40:03;;;;;;;2.17;1.87;;;;;;;-146.25;100.00;57403.91;5072330;28;20222;-88
2023/06/08 01:42:32;;;;;;;1.90;1.80;;;;;;;-146.25;100.00;57403.91;5071786;28;20191;-87
2023/06/08 01:45:04;;;;;;;1.77;1.67;;;;;;;-146.25;100.00;57403.91;5071897;28;20198;-88
2023/06/08 01:47:36;;;;;;;1.00;1.00;;;;;;;-146.25;100.00;57403.91;5071511;28;20260;-88
2023/06/08 01:50:07;;;;;;;1.47;1.40;;;;;;;-146.25;100.00;57403.91;5071604;28;20603;-88
2023/06/08 01:52:34;;;;;;;1.87;1.77;;;;;;;-146.25;100.00;57403.91;5071955;28;20676;-87
2023/06/08 01:55:02;;;;;;;1.80;1.33;;;;;;;-146.25;100.00;57403.91;5071399;28;20233;-87
2023/06/08 01:57:29;;;;;;;1.20;1.10;;;;;;;-146.25;100.00;57403.91;5071783;28;20697;-87
2023/06/08 01:59:56;;;;;;;1.00;1.00;;;;;;;-146.25;100.00;57403.91;5071309;28;20203;-88
2023/06/08 02:02:23;;;;;;;2.00;1.27;;;;;;;-146.25;100.00;57403.91;5071128;28;20640;-87
2023/06/08 02:04:50;;;;;;;1.43;1.20;;;;;;;-146.25;100.00;57403.91;5071261;28;20726;-86
2023/06/08 02:07:17;;;;;;;1.70;1.60;;;;;;;-146.25;100.00;57403.91;5071458;28;20231;-85
2023/06/08 02:09:44;;;;;;;1.43;1.43;;;;;;;-146.25;100.00;57403.91;5071572;28;20205;-87
2023/06/08 02:12:13;;;;;;;3.03;1.70;;;;;;;-146.25;100.00;57403.91;5071333;28;20292;-87
2023/06/08 02:14:40;;;;;;;1.63;1.53;;;;;;;-146.25;100.00;57403.91;5070806;28;20715;-86
2023/06/08 02:17:07;;;;;;;1.83;1.60;;;;;;;-146.25;100.00;57403.91;5071356;28;20266;-86
2023/06/08 02:19:34;;;;;;;2.13;1.80;;;;;;;-146.25;100.00;57403.91;5071457;28;20195;-86
2023/06/08 02:22:02;;;;;;;2.07;1.20;;;;;;;-146.25;100.00;57403.91;5071186;28;20202;-86
2023/06/08 02:24:29;;;;;;;2.70;2.53;;;;;;;-146.25;100.00;57403.91;5071192;28;20191;-87
2023/06/08 02:26:56;;;;;;;4.23;1.27;;;;;;;-146.25;100.00;57403.91;5071504;28;20264;-87
2023/06/08 02:29:26;;;;;;;0.80;0.80;;;;;;;-146.25;100.00;57403.91;5071198;28;20206;-87
2023/06/08 02:31:53;;;;;;;1.60;1.50;;;;;;;-146.25;100.00;57403.91;5071543;28;20225;-87
2023/06/08 02:34:20;;;;;;;1.07;1.07;;;;;;;-146.25;100.00;57403.91;5070738;28;20653;-88
2023/06/08 02:36:48;;;;;;;1.50;1.40;;;;;;;-146.25;100.00;57403.91;5071220;28;20207;-86
2023/06/08 02:39:16;;;;;;;2.90;1.90;;;;;;;-146.25;100.00;57403.91;5070665;28;20226;-87
2023/06/08 02:41:43;;;;;;;4.00;1.70;;;;;;;-146.25;100.00;57403.91;5069869;28;20301;-87
2023/06/08 02:44:10;;;;;;;3.83;2.67;;;;;;;-146.25;100.00;57403.91;5070411;28;20234;-88
2023/06/08 02:46:38;;;;;;;12.73;5.53;;;;;;;-146.25;100.00;57403.91;5070813;28;20285;-86
2023/06/08 02:49:05;;;;;;;1.70;1.53;;;;;;;-146.25;100.00;57403.91;5071460;28;20221;-85
2023/06/08 02:51:32;;;;;;;1.40;1.30;;;;;;;-146.25;100.00;57403.91;5071094;28;20202;-87
2023/06/08 02:53:59;;;;;;;1.93;1.83;;;;;;;-146.25;100.00;57403.91;5070986;28;20217;-87
2023/06/08 02:56:27;;;;;;;1.70;1.70;;;;;;;-146.25;100.00;57403.91;5070869;28;20206;-85
2023/06/08 02:58:56;;;;;;;3.43;1.60;;;;;;;-146.25;100.00;57403.91;5071265;28;20210;-85
2023/06/08 03:01:23;;;;;;;1.77;1.67;;;;;;;-146.25;100.00;57403.91;5070496;28;20317;-86
2023/06/08 03:03:52;;;;;;;2.47;2.27;;;;;;;-146.25;100.00;57403.91;5070530;28;20187;-87
2023/06/08 03:06:20;;;;;;;2.57;1.57;;;;;;;-146.25;100.00;57403.91;5070422;28;20658;-86
2023/06/08 03:08:53;;;;;;;1.70;1.60;;;;;;;-146.25;100.00;57403.91;5070922;28;20234;-86
2023/06/08 03:11:20;;;;;;;3.10;2.00;;;;;;;-146.25;100.00;57403.91;5070640;28;20220;-86
2023/06/08 03:13:48;;;;;;;3.80;1.93;;;;;;;-146.25;100.00;57403.91;5070617;28;20539;-86
2023/06/08 03:16:15;;;;;;;2.10;2.00;;;;;;;-146.25;100.00;57403.91;5070420;28;20254;-86
2023/06/08 03:18:44;;;;;;;1.77;1.67;;;;;;;-146.25;100.00;57403.91;5070370;28;20370;-88
2023/06/08 03:21:13;;;;;;;2.80;2.60;;;;;;;-146.25;100.00;57403.91;5070066;28;20193;-86
2023/06/08 03:23:40;;;;;;;2.50;2.40;;;;;;;-146.25;100.00;57403.91;5070013;28;20614;-86
2023/06/08 03:26:07;;;;;;;4.03;1.83;;;;;;;-146.25;100.00;57403.91;5070757;28;20263;-87
2023/06/08 03:28:34;;;;;;;3.90;2.35;;;;;;;-146.25;100.00;57403.91;5070384;28;20253;-87
2023/06/08 03:31:02;;;;;;;1.90;1.80;;;;;;;-146.25;100.00;57403.91;5069960;28;20208;-87
2023/06/08 03:33:29;;;;;;;6.75;1.70;;;;;;;-146.25;100.00;57403.91;5070407;28;20201;-87
2023/06/08 03:35:56;;;;;;;3.20;2.50;;;;;;;-146.25;100.00;57403.91;5069966;28;20248;-88
2023/06/08 03:38:24;;;;;;;5.35;2.30;;;;;;;-146.25;100.00;57403.91;5070297;28;20199;-87
2023/06/08 03:40:54;;;;;;;2.10;2.00;;;;;;;-146.25;100.00;57403.91;5070767;28;20210;-87
2023/06/08 03:43:21;;;;;;;2.10;1.90;;;;;;;-146.25;100.00;57403.91;5070492;28;20210;-88
2023/06/08 03:45:48;;;;;;;2.10;1.95;;;;;;;-146.25;100.00;57403.91;5069992;28;20285;-87
2023/06/08 03:48:15;;;;;;;2.08;1.98;;;;;;;-146.25;100.00;57403.91;5070074;28;20191;-87
2023/06/08 03:50:43;;;;;;;2.38;2.28;;;;;;;-146.25;100.00;57403.91;5079509;28;20201;-88
2023/06/08 03:53:11;;;;;;;1.80;1.70;;;;;;;-146.25;100.00;57403.91;5090824;28;20280;-89
2023/06/08 03:55:46;;;;;;;3.30;1.92;;;;;;;-146.25;100.00;57403.91;5090720;28;20317;-87
2023/06/08 03:58:13;;;;;;;2.50;2.40;;;;;;;-146.25;100.00;57403.91;5103283;28;20198;-87
2023/06/08 04:00:41;;;;;;;1.80;1.70;;;;;;;-146.25;100.00;57403.91;5105223;28;20195;-85
2023/06/08 04:03:09;;;;;;;1.95;1.85;;;;;;;-146.25;100.00;57403.91;5102185;28;20281;-88
2023/06/08 04:05:57;;;;;;;1.98;1.88;;;;;;;-146.25;100.00;57403.91;5091572;28;20202;-87
2023/06/08 04:08:26;;;;;;;4.00;1.55;;;;;;;-146.25;100.00;57403.91;5091577;28;20217;-88
2023/06/08 04:11:03;;;;;;;1.58;1.48;;;;;;;-146.25;100.00;57403.91;5089698;28;20275;-89
2023/06/08 04:13:31;;;;;;;1.88;1.77;;;;;;;-146.25;100.00;57403.91;5079810;28;20199;-88
2023/06/08 04:18:40;;;;;;;1.70;1.60;;;;;;;-146.25;100.00;57403.91;5070207;28;20224;-87
2023/06/08 04:21:08;;;;;;;1.35;1.30;;;;;;;-146.25;100.00;57403.91;5088853;28;20309;-88
2023/06/08 04:23:36;;;;;;;2.03;1.92;;;;;;;-146.25;100.00;57403.91;5092491;28;20212;-86
2023/06/08 04:26:07;;;;;;;1.70;1.60;;;;;;;-146.25;100.00;57403.91;5093287;28;20190;-87
2023/06/08 04:28:34;;;;;;;1.52;1.42;;;;;;;-146.25;100.00;57403.91;5093420;28;20190;-88
2023/06/08 04:31:02;;;;;;;1.65;1.55;;;;;;;-146.25;100.00;57403.91;5092922;28;20616;-86
2023/06/08 04:33:29;;;;;;;1.60;1.50;;;;;;;-146.25;100.00;57403.91;5093558;28;20209;-88
2023/06/08 04:35:56;;;;;;;1.40;1.40;;;;;;;-146.25;100.00;57403.91;5093282;28;20229;-87
2023/06/08 04:38:25;;;;;;;1.20;1.20;;;;;;;-146.25;100.00;57403.91;5093290;28;20277;-86
2023/06/08 04:40:53;;;;;;;1.48;1.48;;;;;;;-146.25;100.00;57403.91;5092569;28;20209;-88
2023/06/08 04:43:30;;;;;;;1.30;1.30;;;;;;;-146.25;100.00;57403.91;5092829;28;20593;-88
2023/06/08 04:45:59;;;;;;;6.68;1.67;;;;;;;-146.25;100.00;57403.91;5092883;28;20735;-87
2023/06/08 04:48:27;;;;;;;1.33;1.23;;;;;;;-146.25;100.00;57403.91;5093086;28;20194;-87
2023/06/08 04:50:54;;;;;;;1.80;1.65;;;;;;;-146.25;100.00;57403.91;5093134;28;20190;-87
2023/06/08 04:53:23;;;;;;;1.58;1.55;;;;;;;-146.25;100.00;57403.91;5093185;28;20191;-88
2023/06/08 04:55:56;;;;;;;1.83;1.73;;;;;;;-146.25;100.00;57403.91;5092220;28;20316;-86
2023/06/08 04:58:25;;;;;;;1.55;1.50;;;;;;;-146.25;100.00;57403.91;5091087;28;20218;-88
2023/06/08 05:00:52;;;;;;;1.85;1.75;;;;;;;-146.25;100.00;57403.91;5091745;28;20722;-87
2023/06/08 05:03:19;;;;;;;1.65;1.58;;;;;;;-146.25;100.00;57403.91;5093343;28;20198;-88
2023/06/08 05:05:46;;;;;;;1.67;1.58;;;;;;;-146.25;100.00;57403.91;5094500;28;20242;-88
2023/06/08 05:08:14;;;;;;;1.77;1.60;;;;;;;-146.25;100.00;57403.91;5091634;28;20198;-87
2023/06/08 05:10:41;;;;;;;1.90;1.80;;;;;;;-146.25;100.00;57403.91;5092084;28;20285;-86
2023/06/08 05:13:10;;;;;;;2.00;1.90;;;;;;;-146.25;100.00;57403.91;5095589;28;20289;-88
2023/06/08 05:15:58;;;;;;;1.42;1.42;;;;;;;-146.25;100.00;57403.91;5091236;28;20225;-87
2023/06/08 05:18:30;;;;;;;1.75;1.65;;;;;;;-146.25;100.00;57403.91;5092383;28;20288;-86
2023/06/08 05:20:57;;;;;;;1.83;1.73;;;;;;;-146.25;100.00;57403.91;5091542;28;20204;-86
2023/06/08 05:23:24;;;;;;;1.90;1.80;;;;;;;-146.25;100.00;57403.91;5093324;28;20238;-87
2023/06/08 05:25:53;;;;;;;1.45;1.45;;;;;;;-146.25;100.00;57403.91;5092413;28;20196;-87
2023/06/08 05:28:22;;;;;;;2.22;2.10;;;;;;;-146.25;100.00;57403.91;5092974;28;20212;-88
2023/06/08 05:30:49;;;;;;;2.20;2.10;;;;;;;-146.25;100.00;57403.91;5092674;28;20231;-88
2023/06/08 05:33:18;;;;;;;1.90;1.80;;;;;;;-146.25;100.00;57403.91;5092180;28;20202;-87
2023/06/08 05:35:45;;;;;;;2.58;2.38;;;;;;;-146.25;100.00;57403.91;5092533;28;20225;-87
2023/06/08 05:38:12;;;;;;;1.95;1.85;;;;;;;-146.25;100.00;57403.91;5092367;28;20213;-87
2023/06/08 05:40:42;;;;;;;1.85;1.85;;;;;;;-146.25;100.00;57403.91;5092233;28;20199;-87
2023/06/08 05:43:09;;;;;;;1.75;1.65;;;;;;;-146.25;100.00;57403.91;5092317;28;20276;-89
2023/06/08 05:45:36;;;;;;;1.70;1.70;;;;;;;-146.25;100.00;57403.91;5092268;28;20206;-88
2023/06/08 05:48:03;;;;;;;5.60;1.52;;;;;;;-146.25;100.00;57403.91;5091946;28;20233;-87
2023/06/08 05:50:32;;;;;;;1.63;1.60;;;;;;;-146.25;100.00;57403.91;5093173;28;20281;-88
2023/06/08 05:52:59;;;;;;;1.98;1.88;;;;;;;-146.25;100.00;57403.91;5093638;28;20243;-87
2023/06/08 05:55:26;;;;;;;2.33;2.03;;;;;;;-146.25;100.00;57403.91;5104178;28;20713;-87
2023/06/08 05:57:53;;;;;;;1.73;1.63;;;;;;;-146.25;100.00;57403.91;5093284;28;20198;-88
2023/06/08 06:00:21;;;;;;;2.22;2.13;;;;;;;-146.25;100.00;57403.91;5093060;28;20235;-86
2023/06/08 06:02:48;;;;;;;2.08;1.85;;;;;;;-146.25;100.00;57403.91;5093216;28;20485;-88
2023/06/08 06:05:17;;;;;;;1.70;1.65;;;;;;;-146.25;100.00;57403.91;5093924;28;20205;-87
2023/06/08 06:07:45;;;;;;;1.70;1.60;;;;;;;-146.25;100.00;57403.91;5093274;28;20669;-85
2023/06/08 06:10:12;;;;;;;1.92;1.88;;;;;;;-146.25;100.00;57403.91;5096814;28;20631;-86
2023/06/08 06:12:40;;;;;;;3.20;2.28;;;;;;;-146.25;100.00;57403.91;5093066;28;20676;-86
2023/06/08 06:15:08;;;;;;;2.28;2.17;;;;;;;-146.25;100.00;57403.91;5097797;28;20189;-86
2023/06/08 06:17:35;;;;;;;1.83;1.73;;;;;;;-146.25;100.00;57403.91;5094566;28;20205;-88
2023/06/08 06:20:04;;;;;;;1.80;1.70;;;;;;;-146.25;100.00;57403.91;5095360;28;20280;-86
2023/06/08 06:22:32;;;;;;;3.03;1.98;;;;;;;-146.25;100.00;57403.91;5094835;28;20201;-86
2023/06/08 06:25:00;;;;;;;1.95;1.85;;;;;;;-146.25;100.00;57403.91;5094047;28;20258;-88
2023/06/08 06:27:29;;;;;;;6.18;2.00;;;;;;;-146.25;100.00;57403.91;5093878;28;20700;-88
2023/06/08 06:29:56;;;;;;;3.20;2.20;;;;;;;-146.25;100.00;57403.91;5093226;28;20450;-87
2023/06/08 06:32:23;;;;;;;2.28;2.10;;;;;;;-146.25;100.00;57403.91;5095512;28;20254;-86
2023/06/08 06:34:53;;;;;;;1.85;1.80;;;;;;;-146.25;100.00;57403.91;5094532;28;20228;-88
2023/06/08 06:37:21;;;;;;;3.35;2.03;;;;;;;-146.25;100.00;57403.91;5094980;28;20267;-85
2023/06/08 06:39:50;;;;;;;1.75;1.65;;;;;;;-146.25;100.00;57403.91;5096500;28;20197;-86
2023/06/08 06:42:20;;;;;;;2.30;2.20;;;;;;;-146.25;100.00;57403.91;5094864;28;20267;-87
2023/06/08 06:44:48;;;;;;;2.00;1.90;;;;;;;-146.25;100.00;57403.91;5094056;28;20280;-86
2023/06/08 06:47:15;;;;;;;1.98;1.88;;;;;;;-146.25;100.00;57403.91;5092937;28;20196;-88
2023/06/08 06:49:42;;;;;;;1.90;1.80;;;;;;;-146.25;100.00;57403.91;5094359;28;20205;-87
2023/06/08 06:52:09;;;;;;;1.45;1.45;;;;;;;-146.25;100.00;57403.91;5092246;28;20743;-87
2023/06/08 06:54:36;;;;;;;1.95;1.85;;;;;;;-146.25;100.00;57403.91;5093402;28;20259;-86
2023/06/08 06:57:07;;;;;;;2.03;1.45;;;;;;;-146.25;100.00;57403.91;5093662;28;20225;-87
2023/06/08 06:59:40;;;;;;;1.80;1.70;;;;;;;-146.25;100.00;57403.91;5094682;28;20229;-86
2023/06/08 07:02:08;;;;;;;2.28;1.67;;;;;;;-146.25;100.00;57403.91;5093907;28;20321;-87
2023/06/08 07:04:38;;;;;;;2.35;1.92;;;;;;;-146.25;100.00;57403.91;5094036;28;20292;-87
2023/06/08 07:07:05;;;;;;;1.85;1.75;;;;;;;-146.25;100.00;57403.91;5092487;28;20201;-86
2023/06/08 07:09:32;;;;;;;1.77;1.67;;;;;;;-146.25;100.00;57403.91;5093008;28;20568;-88
2023/06/08 07:11:59;;;;;;;1.63;1.52;;;;;;;-146.25;100.00;57403.91;5094307;28;20312;-86
2023/06/08 07:14:27;;;;;;;1.80;1.70;;;;;;;-146.25;100.00;57403.91;5093906;28;20258;-87
2023/06/08 07:16:56;;;;;;;1.55;1.55;;;;;;;-146.25;100.00;57403.91;5092678;28;20229;-86
2023/06/08 07:19:23;;;;;;;1.73;1.63;;;;;;;-146.25;100.00;57403.91;5092750;28;20618;-87
2023/06/08 07:21:54;;;;;;;2.00;1.90;;;;;;;-146.25;100.00;57403.91;5094914;28;20216;-87
2023/06/08 07:24:24;;;;;;;1.70;1.65;;;;;;;-146.25;100.00;57403.91;5098283;28;20204;-86
2023/06/08 07:26:51;;;;;;;1.40;1.40;;;;;;;-146.25;100.00;57403.91;5092447;28;20686;-88
2023/06/08 07:29:19;;;;;;;2.00;1.90;;;;;;;-146.25;100.00;57403.91;5092867;28;20570;-88
2023/06/08 07:31:46;;;;;;;1.60;1.60;;;;;;;-146.25;100.00;57403.91;5093269;28;20219;-87
2023/06/08 07:34:16;;;;;;;1.85;1.70;;;;;;;-146.25;100.00;57403.91;5092954;28;20200;-88
2023/06/08 07:36:43;;;;;;;2.03;1.92;;;;;;;-146.25;100.00;57403.91;5093454;28;20294;-87
2023/06/08 07:39:10;;;;;;;1.65;1.58;;;;;;;-146.25;100.00;57403.91;5092476;28;20219;-87
2023/06/08 07:41:37;;;;;;;4.43;1.60;;;;;;;-146.25;100.00;57403.91;5093180;28;20228;-86
2023/06/08 07:44:04;;;;;;;1.63;1.52;;;;;;;-146.25;100.00;57403.91;5091975;28;20673;-88
2023/06/08 07:46:32;;;;;;;2.03;1.48;;;;;;;-146.25;100.00;57403.91;5092737;28;20228;-86
2023/06/08 07:48:59;;;;;;;7.75;1.75;;;;;;;-146.25;100.00;57403.91;5092018;28;20220;-88
2023/06/08 07:51:27;;;;;;;3.72;1.73;;;;;;;-146.25;100.00;57403.91;5092635;28;20283;-86
2023/06/08 07:53:56;;;;;;;1.33;1.33;;;;;;;-146.25;100.00;57403.91;5095113;28;20201;-87
2023/06/08 07:56:22;;;;;;;2.65;1.83;;;;;;;-146.25;100.00;57403.91;5095904;28;20221;-87
2023/06/08 07:58:50;;;;;;;1.60;1.50;;;;;;;-146.25;100.00;57403.91;5095564;28;20202;-86
2023/06/08 08:01:17;;;;;;;1.80;1.70;;;;;;;-146.25;100.00;57403.91;5096898;28;20242;-87
2023/06/08 08:03:46;;;;;;;2.10;2.00;;;;;;;-146.25;100.00;57403.91;5097757;28;20552;-89
2023/06/08 08:06:12;;;;;;;3.17;1.80;;;;;;;-146.25;100.00;57403.91;5096188;28;20201;-86
2023/06/08 08:08:41;;;;;;;2.25;2.05;;;;;;;-146.25;100.00;57403.91;5096185;28;20236;-88
2023/06/08 08:11:09;;;;;;;1.83;1.67;;;;;;;-146.25;100.00;57403.91;5099199;28;20225;-87
2023/06/08 08:13:40;;;;;;;2.10;1.85;;;;;;;-146.25;100.00;57403.91;5096745;28;20235;-87
2023/06/08 08:16:07;;;;;;;1.45;1.45;;;;;;;-146.25;100.00;57403.91;5094781;28;20674;-87
2023/06/08 08:18:35;;;;;;;1.83;1.73;;;;;;;-146.25;100.00;57403.91;5094140;28;20580;-86
2023/06/08 08:21:01;;;;;;;1.95;1.70;;;;;;;-146.25;100.00;57403.91;5093597;28;20193;-86
2023/06/08 08:23:28;;;;;;;2.10;1.95;;;;;;;-146.25;100.00;57403.91;5093360;28;20634;-86
2023/06/08 08:25:56;;;;;;;1.75;1.75;;;;;;;-146.25;100.00;57403.91;5093596;28;20205;-88
2023/06/08 08:28:24;;;;;;;1.92;1.83;;;;;;;-146.25;100.00;57403.91;5093899;28;20281;-87
2023/06/08 08:30:51;;;;;;;1.80;1.70;;;;;;;-146.25;100.00;57403.91;5093566;28;20205;-88
2023/06/08 08:33:18;;;;;;;1.48;1.38;;;;;;;-146.25;100.00;57403.91;5093302;28;20201;-86
2023/06/08 08:35:45;;;;;;;1.67;1.58;;;;;;;-146.25;100.00;57403.91;5093186;28;20215;-87
2023/06/08 08:38:12;;;;;;;1.65;1.65;;;;;;;-146.25;100.00;57403.91;5093035;28;20263;-86
2023/06/08 08:40:41;;;;;;;1.95;1.85;;;;;;;-146.25;100.00;57403.91;5093483;28;20201;-87
2023/06/08 08:43:13;;;;;;;1.45;1.35;;;;;;;-146.25;100.00;57403.91;5093431;28;20201;-88
2023/06/08 08:45:42;;;;;;;1.77;1.63;;;;;;;-146.25;100.00;57403.91;5093894;28;20206;-86
2023/06/08 08:48:13;;;;;;;2.35;1.80;;;;;;;-146.25;100.00;57403.91;5093484;28;20194;-87
2023/06/08 08:50:41;;;;;;;1.67;1.63;;;;;;;-146.25;100.00;57403.91;5093417;28;20274;-87
2023/06/08 08:53:10;;;;;;;1.52;1.42;;;;;;;-146.25;100.00;57403.91;5094486;28;20198;-88
2023/06/08 08:55:41;;;;;;;1.45;1.35;;;;;;;-146.25;100.00;57403.91;5099424;28;20666;-88
2023/06/08 08:58:11;;;;;;;2.10;1.88;;;;;;;-146.25;100.00;57403.91;5100952;28;20694;-87
2023/06/08 09:00:38;;;;;;;1.55;1.45;;;;;;;-146.25;100.00;57403.91;5100329;28;20202;-87
2023/06/08 09:03:06;;;;;;;2.05;1.95;;;;;;;-146.25;100.00;57403.91;5100935;28;20267;-87
2023/06/08 09:05:32;;;;;;;1.83;1.73;;;;;;;-146.25;100.00;57403.91;5094269;28;20529;-87
2023/06/08 09:08:00;;;;;;;3.72;1.73;;;;;;;-146.25;100.00;57403.91;5092304;28;20618;-88
2023/06/08 09:10:27;;;;;;;1.77;1.67;;;;;;;-146.25;100.00;57403.91;5092841;28;20202;-87
2023/06/08 09:12:56;;;;;;;1.63;1.25;;;;;;;-146.25;100.00;57403.91;5092806;28;20230;-88
2023/06/08 09:15:30;;;;;;;1.52;1.45;;;;;;;-146.25;100.00;57403.91;5092758;28;20284;-87
2023/06/08 09:17:58;;;;;;;1.70;1.50;;;;;;;-146.25;100.00;57403.91;5092596;28;20237;-86
2023/06/08 09:20:31;;;;;;;1.42;1.42;;;;;;;-146.25;100.00;57403.91;5092524;28;20290;-86
2023/06/08 09:22:58;;;;;;;1.35;1.35;;;;;;;-146.25;100.00;57403.91;5091962;28;20267;-88
2023/06/08 09:25:43;;;;;;;1.48;1.40;;;;;;;-146.25;100.00;57403.91;5092754;28;20282;-88
2023/06/08 09:28:18;;;;;;;1.73;1.63;;;;;;;-146.25;100.00;57403.91;5092310;28;20202;-87
2023/06/08 09:30:48;;;;;;;1.67;1.55;;;;;;;-146.25;100.00;57403.91;5091960;28;20205;-88
2023/06/08 09:33:22;;;;;;;1.67;1.60;;;;;;;-146.25;100.00;57403.91;5091158;28;20267;-88
2023/06/08 09:36:03;;;;;;;2.83;1.95;;;;;;;-146.25;100.00;57403.91;5091361;28;20229;-87
2023/06/08 09:38:32;;;;;;;2.13;1.95;;;;;;;-146.25;100.00;57403.91;5091631;28;20740;-86
2023/06/08 09:41:14;;;;;;;1.70;1.60;;;;;;;-146.25;100.00;57403.91;5092092;28;20628;-87
2023/06/08 09:43:43;;;;;;;1.50;1.40;;;;;;;-146.25;100.00;57403.91;5092249;28;20223;-88
2023/06/08 09:46:16;;;;;;;1.90;1.63;;;;;;;-146.25;100.00;57403.91;5093514;28;20739;-88
2023/06/08 09:48:53;;;;;;;1.55;1.45;;;;;;;-146.25;100.00;57403.91;5092369;28;20193;-87
2023/06/08 09:51:22;;;;;;;3.13;1.58;;;;;;;-146.25;100.00;57403.91;5091807;28;20555;-87
2023/06/08 09:53:54;;;;;;;1.30;1.30;;;;;;;-146.25;100.00;57403.91;5091490;28;20202;-87
2023/06/08 09:56:23;;;;;;;9.68;1.75;;;;;;;-146.25;100.00;57403.91;5092636;28;20258;-86
2023/06/08 09:58:53;;;;;;;1.90;1.65;;;;;;;-146.25;100.00;57403.91;5092017;28;20194;-86
2023/06/08 10:01:27;;;;;;;2.08;1.98;;;;;;;-146.25;100.00;57403.91;5091500;28;20242;-87
2023/06/08 10:03:58;;;;;;;1.40;1.30;;;;;;;-146.25;100.00;57403.91;5091454;28;20323;-87
2023/06/08 10:06:26;;;;;;;1.40;1.40;;;;;;;-146.25;100.00;57403.91;5091331;28;20190;-85
2023/06/08 10:08:56;;;;;;;1.77;1.73;;;;;;;-146.25;100.00;57403.91;5091798;28;20733;-89
2023/06/08 10:11:24;;;;;;;2.47;1.60;;;;;;;-146.25;100.00;57403.91;5091601;28;20214;-85
2023/06/08 10:13:51;;;;;;;1.85;1.75;;;;;;;-146.25;100.00;57403.91;5091264;28;20209;-87
2023/06/08 10:16:19;;;;;;;1.40;1.30;;;;;;;-146.25;100.00;57403.91;5090381;28;20206;-87
2023/06/08 10:18:48;;;;;;;1.73;1.67;;;;;;;-146.25;100.00;57403.91;5090356;28;20245;-88
2023/06/08 10:21:15;;;;;;;1.65;1.55;;;;;;;-146.25;100.00;57403.91;5089681;28;20220;-89
2023/06/08 10:23:43;;;;;;;2.50;1.35;;;;;;;-146.25;100.00;57403.91;5090632;28;20209;-89
2023/06/08 10:26:11;;;;;;;1.55;1.45;;;;;;;-146.25;100.00;57403.91;5091167;28;20276;-89
2023/06/08 10:29:06;;;;;;;1.70;1.60;;;;;;;-146.25;100.00;57403.91;5090970;28;20190;-87
2023/06/08 10:31:34;;;;;;;1.25;1.23;;;;;;;-146.25;100.00;57403.91;5090697;28;20279;-87
2023/06/08 10:34:09;;;;;;;1.20;1.20;;;;;;;-146.25;100.00;57403.91;5091024;28;20221;-88
2023/06/08 10:36:39;;;;;;;1.10;1.10;;;;;;;-146.25;100.00;57403.91;5090995;28;20205;-87
2023/06/08 10:39:10;;;;;;;1.63;1.52;;;;;;;-146.25;100.00;57403.91;5091219;28;20281;-89
2023/06/08 10:41:42;;;;;;;1.20;1.20;;;;;;;-146.25;100.00;57403.91;5090641;28;20224;-88
2023/06/08 10:44:26;;;;;;;2.40;1.80;;;;;;;-146.25;100.00;57403.91;5090814;28;20198;-88
2023/06/08 10:46:59;;;;;;;6.35;1.60;;;;;;;-146.25;100.00;57403.91;5092495;28;20308;-88
2023/06/08 10:49:31;;;;;;;1.40;1.40;;;;;;;-146.25;100.00;57403.91;5089898;28;20221;-86
2023/06/08 10:52:00;;;;;;;1.15;1.10;;;;;;;-146.25;100.00;57403.91;5093725;28;20317;-86
2023/06/08 10:54:28;;;;;;;1.42;1.42;;;;;;;-146.25;100.00;57403.91;5094387;28;20198;-87
2023/06/08 10:56:57;;;;;;;1.30;1.25;;;;;;;-146.25;100.00;57403.91;5094601;28;20283;-87
2023/06/08 10:59:31;;;;;;;1.40;1.30;;;;;;;-146.25;100.00;57403.91;5093782;28;20206;-88
2023/06/08 11:02:02;;;;;;;1.60;1.50;;;;;;;-146.25;100.00;57403.91;5091268;28;20233;-87
2023/06/08 11:04:32;;;;;;;2.13;1.35;;;;;;;-146.25;100.00;57403.91;5090483;28;20274;-87
2023/06/08 11:07:02;;;;;;;1.35;1.25;;;;;;;-146.25;100.00;57403.91;5090420;28;20285;-86
2023/06/08 11:09:34;;;;;;;1.00;1.00;;;;;;;-146.25;100.00;57403.91;5089774;28;20302;-87
2023/06/08 11:12:02;;;;;;;1.30;1.30;;;;;;;-146.25;100.00;57403.91;5090022;28;20264;-88
2023/06/08 11:14:31;;;;;;;1.20;1.20;;;;;;;-146.25;100.00;57403.91;5090069;28;20206;-86
2023/06/08 11:17:00;;;;;;;0.80;0.80;;;;;;;-146.25;100.00;57403.91;5092866;28;20237;-88
2023/06/08 11:19:32;;;;;;;1.30;1.30;;;;;;;-146.25;100.00;57403.91;5091393;28;20190;-87
2023/06/08 11:21:59;;;;;;;1.77;1.48;;;;;;;-146.25;100.00;57403.91;5090449;28;20198;-89